Time;durP1;ratioP1;P1;durP2;ratioP2;P2;SDS_P1;SDS_P2;PMS_P1;PMS_P2;Temp;Humidity;BMP_temperature;BMP_pressure;BME280_temperature;BME280_humidity;BME280_pressure;Samples;Min_cycle;Max_cycle;Signal;HPM_P1;HPM_P2
2022/03/28 00:00:17;;;;;;;13.90;9.40;;;11.00;60.10;;;;;;5013844;28;21019;-48
2022/03/28 00:02:45;;;;;;;14.33;8.60;;;11.00;60.70;;;;;;5014195;28;20447;-48
2022/03/28 00:05:13;;;;;;;13.73;8.67;;;11.00;60.80;;;;;;5014019;28;20458;-48
2022/03/28 00:07:41;;;;;;;16.63;9.83;;;11.00;61.20;;;;;;5013795;28;20479;-49
2022/03/28 00:10:09;;;;;;;15.43;9.50;;;11.00;61.10;;;;;;5014091;28;20449;-49
2022/03/28 00:12:38;;;;;;;13.43;8.30;;;10.90;60.50;;;;;;5014213;28;20447;-48
2022/03/28 00:15:08;;;;;;;12.57;9.30;;;10.80;60.40;;;;;;5014021;28;20451;-49
2022/03/28 00:17:36;;;;;;;13.20;9.97;;;10.80;61.90;;;;;;5013535;28;20992;-48
2022/03/28 00:20:04;;;;;;;12.60;8.63;;;10.80;62.20;;;;;;5013988;28;20479;-49
2022/03/28 00:22:31;;;;;;;13.93;8.03;;;10.80;63.00;;;;;;5013705;28;20455;-48
2022/03/28 00:24:59;;;;;;;14.27;9.47;;;10.70;63.40;;;;;;5013514;28;20829;-48
2022/03/28 00:27:26;;;;;;;14.03;10.20;;;10.70;63.20;;;;;;5013466;28;20467;-48
2022/03/28 00:29:53;;;;;;;11.30;9.20;;;10.70;63.50;;;;;;5013688;28;20925;-48
2022/03/28 00:32:20;;;;;;;19.17;10.30;;;10.60;63.20;;;;;;5013458;28;20827;-48
2022/03/28 00:34:48;;;;;;;12.63;9.23;;;10.50;64.00;;;;;;5013515;28;20451;-48
2022/03/28 00:37:15;;;;;;;12.23;8.60;;;10.60;64.50;;;;;;5013317;28;20485;-48
2022/03/28 00:39:43;;;;;;;13.60;9.17;;;10.50;65.40;;;;;;5013308;28;20483;-49
2022/03/28 00:42:11;;;;;;;21.50;9.10;;;10.50;64.90;;;;;;5013706;28;20822;-49
2022/03/28 00:44:38;;;;;;;11.77;9.70;;;10.50;66.40;;;;;;5013490;28;20945;-49
2022/03/28 00:47:06;;;;;;;12.47;9.30;;;10.50;64.80;;;;;;5013553;28;20473;-50
2022/03/28 00:49:34;;;;;;;12.60;9.03;;;10.50;79.40;;;;;;5013314;28;20526;-49
2022/03/28 00:52:03;;;;;;;13.03;9.37;;;10.40;64.60;;;;;;5013685;28;20543;-49
2022/03/28 00:54:30;;;;;;;14.63;8.30;;;10.30;65.50;;;;;;5013256;28;20961;-49
2022/03/28 00:56:58;;;;;;;13.60;8.77;;;10.40;65.80;;;;;;5013466;28;20471;-49
2022/03/28 00:59:25;;;;;;;11.80;9.37;;;10.40;66.80;;;;;;5017233;28;20483;-49
2022/03/28 01:01:52;;;;;;;12.20;9.37;;;10.30;66.80;;;;;;5017523;28;20454;-49
2022/03/28 01:04:19;;;;;;;12.63;9.53;;;10.30;67.70;;;;;;5017501;28;20458;-49
2022/03/28 01:06:46;;;;;;;15.17;9.63;;;10.30;67.40;;;;;;5017174;28;20938;-49
2022/03/28 01:09:16;;;;;;;10.23;9.13;;;10.20;68.00;;;;;;5016010;28;20506;-49
2022/03/28 01:11:44;;;;;;;16.27;8.23;;;10.20;68.20;;;;;;5015673;28;20447;-49
2022/03/28 01:14:12;;;;;;;24.27;10.67;;;10.20;67.60;;;;;;5015723;28;20455;-49
2022/03/28 01:19:20;;;;;;;13.20;9.63;;;10.20;68.90;;;;;;5015561;28;20562;-49
2022/03/28 01:21:48;;;;;;;14.13;9.77;;;10.10;68.80;;;;;;5015511;28;20451;-49
2022/03/28 01:24:16;;;;;;;19.07;9.07;;;10.10;69.00;;;;;;5015623;28;20541;-49
2022/03/28 01:26:43;;;;;;;12.83;9.60;;;10.00;69.20;;;;;;5015500;28;20458;-49
2022/03/28 01:29:11;;;;;;;15.40;8.80;;;10.10;69.70;;;;;;5015756;28;20446;-49
2022/03/28 01:31:39;;;;;;;10.57;8.40;;;9.90;70.40;;;;;;5015697;28;20451;-49
2022/03/28 01:34:07;;;;;;;15.23;9.33;;;10.00;70.20;;;;;;5015881;28;20513;-49
2022/03/28 01:36:34;;;;;;;10.07;8.90;;;10.00;70.50;;;;;;5015331;28;20461;-49
2022/03/28 01:39:03;;;;;;;14.53;10.17;;;10.10;70.00;;;;;;5015302;28;20478;-49
2022/03/28 01:41:30;;;;;;;12.13;8.70;;;10.10;70.60;;;;;;5015705;28;20451;-49
2022/03/28 01:43:57;;;;;;;12.73;8.97;;;10.00;70.70;;;;;;5015226;28;20458;-49
2022/03/28 01:46:24;;;;;;;15.33;9.33;;;10.00;71.00;;;;;;5015183;28;20541;-49
2022/03/28 01:48:51;;;;;;;10.33;8.43;;;10.10;71.00;;;;;;5015288;28;20569;-49
2022/03/28 01:51:18;;;;;;;13.00;8.70;;;10.00;71.40;;;;;;5015420;28;20473;-49
2022/03/28 01:53:45;;;;;;;13.93;9.30;;;10.00;71.20;;;;;;5015077;28;20956;-49
2022/03/28 01:56:14;;;;;;;13.43;9.10;;;10.00;71.30;;;;;;5015689;28;20473;-49
2022/03/28 01:58:41;;;;;;;13.13;8.97;;;9.80;72.40;;;;;;5014851;28;20474;-49
2022/03/28 02:01:11;;;;;;;13.20;9.53;;;9.70;73.70;;;;;;5014876;28;20837;-49
2022/03/28 02:03:38;;;;;;;15.37;10.67;;;9.60;74.70;;;;;;5015339;28;20447;-49
2022/03/28 02:06:09;;;;;;;15.53;9.17;;;9.70;73.90;;;;;;5014954;28;20812;-49
2022/03/28 02:08:37;;;;;;;14.60;9.10;;;9.60;73.10;;;;;;4833454;28;5235620;-49
2022/03/28 02:11:07;;;;;;;17.30;10.10;;;9.70;74.50;;;;;;5016266;28;20525;-49
2022/03/28 02:13:39;;;;;;;12.20;10.00;;;9.70;74.60;;;;;;5016597;28;20530;-49
2022/03/28 02:16:07;;;;;;;14.03;8.97;;;9.70;74.60;;;;;;5016224;28;20432;-49
2022/03/28 02:18:34;;;;;;;19.33;10.33;;;9.50;73.50;;;;;;5015748;28;20466;-49
2022/03/28 02:21:01;;;;;;;12.53;9.73;;;9.50;74.10;;;;;;5015804;28;20486;-49
2022/03/28 02:23:29;;;;;;;14.00;9.77;;;9.50;74.70;;;;;;5016017;28;20446;-49
2022/03/28 02:26:03;;;;;;;25.07;12.07;;;9.50;74.90;;;;;;5015965;28;20509;-49
2022/03/28 02:28:30;;;;;;;21.33;10.47;;;9.40;74.80;;;;;;5015879;28;20467;-49
2022/03/28 02:30:59;;;;;;;14.63;10.60;;;9.40;75.90;;;;;;5015679;28;20447;-49
2022/03/28 02:33:26;;;;;;;15.00;10.20;;;9.40;74.80;;;;;;5015842;28;20462;-49
2022/03/28 02:35:53;;;;;;;12.57;10.60;;;9.40;74.60;;;;;;5015603;28;20801;-49
2022/03/28 02:38:20;;;;;;;15.27;10.00;;;9.30;74.40;;;;;;5016013;28;20475;-49
2022/03/28 02:40:47;;;;;;;13.80;9.17;;;9.20;75.50;;;;;;5015645;28;20478;-49
2022/03/28 02:43:14;;;;;;;14.20;9.13;;;9.20;75.00;;;;;;5015493;28;20447;-49
2022/03/28 02:45:42;;;;;;;13.43;9.13;;;9.10;75.40;;;;;;5015776;28;20455;-49
2022/03/28 02:48:11;;;;;;;16.40;10.80;;;9.00;75.90;;;;;;5015561;28;20471;-49
2022/03/28 02:50:38;;;;;;;15.40;9.33;;;9.10;76.10;;;;;;5015515;28;20451;-49
2022/03/28 02:53:05;;;;;;;13.27;11.13;;;9.10;76.10;;;;;;5015240;28;20450;-49
2022/03/28 02:55:32;;;;;;;14.70;9.57;;;9.10;76.40;;;;;;5015374;28;20443;-49
2022/03/28 02:57:59;;;;;;;13.30;8.80;;;9.00;72.50;;;;;;5015201;28;20471;-49
2022/03/28 03:00:26;;;;;;;14.97;9.10;;;9.10;71.70;;;;;;5015410;28;20849;-49
2022/03/28 03:02:54;;;;;;;22.90;8.90;;;9.10;74.70;;;;;;5015022;28;20930;-49
2022/03/28 03:05:23;;;;;;;20.93;9.70;;;9.10;76.60;;;;;;5015254;28;20501;-49
2022/03/28 03:07:50;;;;;;;17.20;9.73;;;9.10;77.10;;;;;;5014858;28;20552;-49
2022/03/28 03:10:17;;;;;;;16.90;9.87;;;9.10;77.00;;;;;;5014949;28;20898;-49
2022/03/28 03:12:44;;;;;;;14.00;9.00;;;9.10;77.30;;;;;;5015062;28;20465;-49
2022/03/28 03:15:12;;;;;;;12.60;10.10;;;9.10;77.70;;;;;;5014714;28;20461;-49
2022/03/28 03:17:39;;;;;;;11.07;9.37;;;9.10;77.90;;;;;;5015140;28;20471;-49
2022/03/28 03:20:07;;;;;;;15.90;9.77;;;9.00;78.50;;;;;;5014166;28;20907;-48
2022/03/28 03:22:36;;;;;;;20.40;9.30;;;9.00;78.10;;;;;;5014545;28;20455;-49
2022/03/28 03:25:04;;;;;;;13.30;8.63;;;9.00;77.80;;;;;;5014958;28;20454;-49
2022/03/28 03:27:31;;;;;;;12.53;9.03;;;8.70;77.60;;;;;;5014478;28;20467;-49
2022/03/28 03:29:58;;;;;;;12.47;9.30;;;8.70;78.00;;;;;;5014743;28;20444;-49
2022/03/28 03:32:25;;;;;;;11.60;8.33;;;8.80;78.30;;;;;;5014587;28;20453;-49
2022/03/28 03:34:53;;;;;;;12.60;9.23;;;8.90;78.80;;;;;;5014693;28;20486;-49
2022/03/28 03:37:20;;;;;;;10.33;8.53;;;8.80;78.60;;;;;;5014139;28;20482;-49
2022/03/28 03:39:48;;;;;;;18.90;9.37;;;8.60;79.00;;;;;;5014692;28;20483;-49
2022/03/28 03:42:15;;;;;;;14.57;8.97;;;8.60;79.40;;;;;;5014531;28;20538;-49
2022/03/28 03:44:42;;;;;;;11.87;9.13;;;8.50;79.00;;;;;;5014222;28;20450;-49
2022/03/28 03:47:09;;;;;;;14.70;9.93;;;8.60;78.90;;;;;;5014413;28;20467;-49
2022/03/28 03:49:37;;;;;;;11.33;8.40;;;8.60;79.60;;;;;;5014393;28;20451;-49
2022/03/28 03:52:04;;;;;;;16.03;9.70;;;8.60;80.50;;;;;;5014401;28;20461;-49
2022/03/28 03:54:32;;;;;;;14.00;9.17;;;8.60;79.60;;;;;;5014163;28;20451;-49
2022/03/28 03:57:00;;;;;;;12.57;9.13;;;8.60;80.40;;;;;;5014241;28;20520;-49
2022/03/28 03:59:27;;;;;;;15.60;10.53;;;8.60;80.10;;;;;;5014182;28;20451;-49
2022/03/28 04:01:54;;;;;;;14.33;10.50;;;8.60;79.90;;;;;;5014286;28;20447;-48
2022/03/28 04:04:21;;;;;;;14.97;9.00;;;8.60;79.40;;;;;;5014005;28;20443;-49
2022/03/28 04:06:49;;;;;;;9.10;8.17;;;8.50;80.00;;;;;;5013786;28;20959;-49
2022/03/28 04:09:16;;;;;;;13.47;9.67;;;8.50;79.90;;;;;;5013769;28;20475;-49
2022/03/28 04:11:43;;;;;;;17.03;10.77;;;8.40;80.00;;;;;;5014165;28;20811;-49
2022/03/28 04:14:11;;;;;;;13.87;9.07;;;8.50;80.70;;;;;;5013666;28;20455;-49
2022/03/28 04:16:38;;;;;;;18.27;10.90;;;8.50;80.50;;;;;;5013889;28;20539;-49
2022/03/28 04:19:05;;;;;;;18.50;10.90;;;8.50;81.20;;;;;;5013644;28;20443;-48
2022/03/28 04:21:33;;;;;;;19.93;9.80;;;8.40;81.00;;;;;;5013828;28;20491;-49
2022/03/28 04:24:00;;;;;;;13.70;9.20;;;8.40;81.00;;;;;;5013845;28;20451;-48
2022/03/28 04:26:27;;;;;;;15.80;10.63;;;8.40;80.60;;;;;;5013654;28;20926;-49
2022/03/28 04:28:54;;;;;;;17.87;9.20;;;8.30;80.60;;;;;;5013746;28;20471;-49
2022/03/28 04:31:23;;;;;;;17.23;10.20;;;8.30;81.50;;;;;;5013664;28;20519;-49
2022/03/28 04:33:50;;;;;;;13.80;10.03;;;8.40;82.00;;;;;;5014051;28;20451;-49
2022/03/28 04:36:17;;;;;;;15.33;10.17;;;8.20;81.70;;;;;;5013375;28;20447;-49
2022/03/28 04:38:45;;;;;;;12.13;9.50;;;8.10;82.00;;;;;;5013442;28;20474;-48
2022/03/28 04:41:12;;;;;;;13.03;9.20;;;8.20;82.20;;;;;;5013739;28;20566;-49
2022/03/28 04:43:39;;;;;;;16.53;9.07;;;8.30;81.70;;;;;;5013816;28;20447;-48
2022/03/28 04:46:06;;;;;;;19.83;10.20;;;8.20;81.50;;;;;;5013356;28;20451;-49
2022/03/28 04:48:34;;;;;;;16.60;11.27;;;8.10;81.50;;;;;;5013480;28;20517;-48
2022/03/28 04:51:02;;;;;;;10.20;9.07;;;8.10;81.90;;;;;;5013545;28;20492;-48
2022/03/28 04:53:29;;;;;;;13.83;12.20;;;8.00;82.60;;;;;;5013147;28;20455;-49
2022/03/28 04:55:56;;;;;;;15.47;11.13;;;8.00;82.60;;;;;;5013619;28;20453;-48
2022/03/28 04:58:23;;;;;;;22.23;11.70;;;7.90;82.30;;;;;;5013212;28;20974;-49
2022/03/28 05:00:51;;;;;;;16.60;10.57;;;8.00;82.70;;;;;;5013354;28;20482;-49
2022/03/28 05:03:18;;;;;;;12.63;11.03;;;7.90;83.10;;;;;;5013663;28;20470;-49
2022/03/28 05:05:47;;;;;;;18.93;12.30;;;8.00;83.40;;;;;;5013814;28;20545;-50
2022/03/28 05:08:14;;;;;;;13.20;9.00;;;8.00;83.60;;;;;;5012720;28;21029;-49
2022/03/28 05:10:43;;;;;;;15.63;10.40;;;8.00;83.50;;;;;;5013062;28;20530;-49
2022/03/28 05:13:10;;;;;;;19.87;10.80;;;8.10;83.30;;;;;;5013088;28;20546;-49
2022/03/28 05:15:37;;;;;;;15.20;10.93;;;8.10;83.20;;;;;;5013485;28;20534;-49
2022/03/28 05:18:04;;;;;;;19.03;10.60;;;8.10;83.40;;;;;;5012792;28;20818;-49
2022/03/28 05:20:32;;;;;;;16.17;10.20;;;8.10;83.80;;;;;;5013215;28;20545;-49
2022/03/28 05:23:00;;;;;;;20.00;10.50;;;8.10;84.00;;;;;;5012838;28;20458;-49
2022/03/28 05:25:27;;;;;;;12.57;9.40;;;8.00;84.00;;;;;;5013238;28;20502;-49
2022/03/28 05:27:55;;;;;;;15.47;10.93;;;8.00;84.00;;;;;;5013005;28;20482;-49
2022/03/28 05:30:22;;;;;;;18.70;10.87;;;8.10;83.30;;;;;;5013126;28;20453;-49
2022/03/28 05:32:49;;;;;;;20.23;12.03;;;8.10;82.80;;;;;;5012621;28;20938;-49
2022/03/28 05:35:16;;;;;;;18.27;11.70;;;8.00;84.00;;;;;;5012898;28;20451;-49
2022/03/28 05:37:44;;;;;;;18.37;12.20;;;7.90;84.00;;;;;;5013008;28;20479;-49
2022/03/28 05:40:13;;;;;;;13.80;10.27;;;7.90;84.10;;;;;;5012771;28;20553;-49
2022/03/28 05:42:41;;;;;;;19.13;12.53;;;7.90;84.60;;;;;;5012992;28;20451;-49
2022/03/28 05:45:11;;;;;;;16.23;11.40;;;7.90;84.00;;;;;;5015980;28;20454;-51
2022/03/28 05:47:39;;;;;;;17.97;10.87;;;8.00;83.40;;;;;;5016331;28;21077;-49
2022/03/28 05:50:07;;;;;;;14.10;11.13;;;8.10;82.70;;;;;;5016219;28;20447;-50
2022/03/28 05:52:34;;;;;;;16.20;11.37;;;8.10;82.90;;;;;;5016065;28;20945;-50
2022/03/28 05:55:01;;;;;;;14.40;10.77;;;8.10;83.40;;;;;;5015720;28;20987;-48
2022/03/28 05:57:29;;;;;;;13.47;10.13;;;8.20;83.80;;;;;;5016051;28;20972;-49
2022/03/28 05:59:57;;;;;;;15.47;10.30;;;8.20;83.60;;;;;;5016200;28;20486;-48
2022/03/28 06:02:24;;;;;;;27.77;9.90;;;8.20;83.00;;;;;;5016350;28;20569;-48
2022/03/28 06:04:52;;;;;;;19.30;12.00;;;8.20;81.70;;;;;;5015809;28;20511;-48
2022/03/28 06:07:19;;;;;;;22.40;12.20;;;8.20;81.10;;;;;;5016057;28;20479;-48
2022/03/28 06:09:46;;;;;;;21.47;12.43;;;8.30;80.90;;;;;;5015811;28;20510;-48
2022/03/28 06:12:13;;;;;;;18.60;12.13;;;8.40;80.00;;;;;;5015946;28;20451;-49
2022/03/28 06:14:41;;;;;;;13.63;10.47;;;8.40;79.40;;;;;;5015767;28;20454;-48
2022/03/28 06:17:09;;;;;;;21.13;10.87;;;8.50;80.10;;;;;;5015973;28;20471;-48
2022/03/28 06:19:36;;;;;;;17.77;11.77;;;8.60;79.60;;;;;;5015705;28;20454;-48
2022/03/28 06:22:03;;;;;;;17.40;12.23;;;8.70;78.80;;;;;;5015949;28;20482;-48
2022/03/28 06:24:31;;;;;;;18.90;11.93;;;8.80;78.70;;;;;;5015398;28;20478;-48
2022/03/28 06:26:58;;;;;;;15.43;11.90;;;8.80;78.50;;;;;;5014959;28;20974;-48
2022/03/28 06:29:25;;;;;;;21.07;10.93;;;8.80;78.30;;;;;;5015976;28;20451;-48
2022/03/28 06:31:53;;;;;;;17.57;11.90;;;8.90;77.70;;;;;;5015560;28;20470;-48
2022/03/28 06:34:20;;;;;;;23.30;12.47;;;8.90;77.40;;;;;;5015751;28;20581;-48
2022/03/28 06:36:47;;;;;;;23.40;12.17;;;9.00;78.10;;;;;;5015318;28;20458;-48
2022/03/28 06:39:15;;;;;;;23.93;12.17;;;9.10;77.40;;;;;;5015442;28;20431;-49
2022/03/28 06:41:42;;;;;;;17.60;11.70;;;9.00;74.70;;;;;;5015528;28;20832;-52
2022/03/28 06:44:11;;;;;;;18.27;12.03;;;9.00;73.70;;;;;;5015271;28;20451;-51
2022/03/28 06:46:39;;;;;;;13.37;11.23;;;9.20;75.70;;;;;;5015436;28;20446;-50
2022/03/28 06:49:08;;;;;;;19.23;12.10;;;9.20;72.60;;;;;;5014884;28;20871;-50
2022/03/28 06:51:35;;;;;;;18.13;10.80;;;9.30;74.00;;;;;;5014751;28;21005;-50
2022/03/28 06:54:04;;;;;;;18.57;12.87;;;9.50;73.70;;;;;;5014920;28;20953;-51
2022/03/28 06:56:31;;;;;;;18.67;11.20;;;9.50;75.00;;;;;;5013851;28;20482;-51
2022/03/28 06:58:58;;;;;;;22.70;12.73;;;9.60;74.50;;;;;;5014801;28;20443;-51
2022/03/28 07:01:26;;;;;;;19.53;12.57;;;9.60;73.60;;;;;;5015126;28;20483;-50
2022/03/28 07:03:55;;;;;;;19.37;12.40;;;9.70;73.80;;;;;;5014571;28;20545;-52
2022/03/28 07:06:25;;;;;;;16.50;12.23;;;9.80;72.90;;;;;;5014272;28;20483;-50
2022/03/28 07:08:53;;;;;;;19.90;12.60;;;9.70;71.50;;;;;;5014864;28;20479;-52
2022/03/28 07:11:20;;;;;;;20.07;12.60;;;9.80;73.30;;;;;;5014815;28;20509;-51
2022/03/28 07:13:48;;;;;;;17.70;12.03;;;9.90;73.40;;;;;;5014371;28;20457;-53
2022/03/28 07:16:15;;;;;;;19.80;12.70;;;10.00;71.30;;;;;;5014921;28;20541;-50
2022/03/28 07:18:42;;;;;;;17.23;12.70;;;9.90;70.50;;;;;;5014431;28;20982;-50
2022/03/28 07:21:09;;;;;;;17.77;12.70;;;10.00;68.70;;;;;;5014847;28;20491;-52
2022/03/28 07:23:38;;;;;;;20.40;11.97;;;10.20;70.60;;;;;;5014668;28;20451;-51
2022/03/28 07:26:05;;;;;;;22.17;12.83;;;10.40;69.30;;;;;;5014518;28;20447;-50
2022/03/28 07:28:32;;;;;;;22.10;13.03;;;10.40;69.00;;;;;;5014633;28;20560;-53
2022/03/28 07:31:01;;;;;;;24.23;13.30;;;10.50;68.00;;;;;;5014450;28;20451;-52
2022/03/28 07:33:28;;;;;;;22.20;13.60;;;10.50;67.60;;;;;;5014656;28;20497;-50
2022/03/28 07:35:55;;;;;;;19.83;11.80;;;10.60;69.10;;;;;;5014609;28;20454;-50
2022/03/28 07:38:22;;;;;;;26.93;13.10;;;10.60;67.00;;;;;;5014020;28;20486;-48
2022/03/28 07:40:51;;;;;;;23.80;13.57;;;10.60;66.90;;;;;;5014593;28;20458;-48
2022/03/28 07:43:18;;;;;;;23.17;12.20;;;10.70;65.90;;;;;;5014408;28;20457;-49
2022/03/28 07:45:45;;;;;;;24.80;13.27;;;10.90;66.60;;;;;;5014411;28;20538;-49
2022/03/28 07:48:13;;;;;;;21.97;13.60;;;11.10;65.70;;;;;;5014090;28;20494;-49
2022/03/28 07:50:40;;;;;;;18.33;14.47;;;11.20;64.00;;;;;;5014539;28;20783;-49
2022/03/28 07:53:07;;;;;;;20.93;13.27;;;11.30;64.80;;;;;;5014455;28;20455;-49
2022/03/28 07:55:34;;;;;;;20.70;12.80;;;11.40;66.10;;;;;;5014383;28;20458;-49
2022/03/28 07:58:03;;;;;;;19.67;13.40;;;11.40;62.20;;;;;;5014157;28;20578;-49
2022/03/28 08:00:30;;;;;;;20.90;13.60;;;11.50;62.40;;;;;;5013912;28;20450;-47
2022/03/28 08:02:58;;;;;;;17.63;12.63;;;11.60;63.10;;;;;;5014161;28;20537;-49
2022/03/28 08:05:26;;;;;;;23.50;12.90;;;11.80;62.00;;;;;;5013802;28;20518;-46
2022/03/28 08:07:53;;;;;;;17.60;12.90;;;11.80;64.00;;;;;;5013389;28;20477;-49
2022/03/28 08:10:21;;;;;;;21.00;13.50;;;11.80;63.40;;;;;;5013726;28;20902;-48
2022/03/28 08:12:49;;;;;;;23.07;13.47;;;11.80;63.70;;;;;;5013741;28;20542;-48
2022/03/28 08:15:18;;;;;;;24.67;14.57;;;12.00;62.30;;;;;;5014050;28;20494;-50
2022/03/28 08:17:46;;;;;;;23.37;14.50;;;12.00;62.80;;;;;;5013464;28;20497;-49
2022/03/28 08:20:14;;;;;;;27.00;15.80;;;12.10;61.70;;;;;;5013925;28;20485;-49
2022/03/28 08:22:46;;;;;;;21.63;13.63;;;12.20;62.00;;;;;;5013749;28;20495;-49
2022/03/28 08:25:14;;;;;;;18.17;12.23;;;12.40;62.90;;;;;;5013955;28;20788;-49
2022/03/28 08:27:41;;;;;;;17.43;13.43;;;12.50;59.70;;;;;;5013570;28;20471;-49
2022/03/28 08:30:10;;;;;;;47.00;15.07;;;12.70;60.00;;;;;;5013867;28;20450;-49
2022/03/28 08:32:40;;;;;;;19.33;12.73;;;12.80;58.90;;;;;;5013641;28;20447;-49
2022/03/28 08:35:08;;;;;;;24.80;15.50;;;12.90;60.00;;;;;;5013283;28;20537;-49
2022/03/28 08:37:36;;;;;;;20.23;14.23;;;13.10;59.60;;;;;;5013767;28;20841;-49
2022/03/28 08:40:03;;;;;;;21.47;14.00;;;13.20;58.00;;;;;;5013544;28;20451;-50
2022/03/28 08:42:33;;;;;;;20.57;13.70;;;13.40;57.80;;;;;;5013619;28;20582;-49
2022/03/28 08:45:00;;;;;;;19.53;13.90;;;13.50;57.30;;;;;;5013182;28;20497;-49
2022/03/28 08:47:28;;;;;;;22.07;14.37;;;13.60;57.10;;;;;;5012539;28;20823;-49
2022/03/28 08:49:57;;;;;;;25.47;14.17;;;13.70;56.50;;;;;;5012209;28;20459;-49
2022/03/28 08:52:24;;;;;;;27.67;15.60;;;13.90;56.50;;;;;;5013397;28;20455;-50
2022/03/28 08:54:52;;;;;;;23.07;16.07;;;14.00;55.50;;;;;;5013354;28;20455;-49
2022/03/28 08:57:19;;;;;;;23.77;14.30;;;14.10;56.70;;;;;;5011673;28;20487;-49
2022/03/28 08:59:46;;;;;;;21.40;13.40;;;14.30;55.60;;;;;;5013020;28;20459;-49
2022/03/28 09:02:33;;;;;;;23.43;15.27;;;14.50;55.50;;;;;;5012522;28;20817;-49
2022/03/28 09:05:02;;;;;;;21.33;14.20;;;14.70;56.10;;;;;;5012892;28;20821;-49
2022/03/28 09:07:30;;;;;;;17.07;13.10;;;14.70;55.00;;;;;;5013029;28;20533;-49
2022/03/28 09:10:01;;;;;;;19.80;13.13;;;14.80;54.60;;;;;;5012806;28;20486;-49
2022/03/28 09:12:28;;;;;;;24.20;16.17;;;14.90;55.80;;;;;;5013094;28;20944;-49
2022/03/28 09:14:58;;;;;;;25.90;13.67;;;15.10;55.50;;;;;;5012894;28;20452;-49
2022/03/28 09:17:26;;;;;;;24.80;14.87;;;15.90;55.30;;;;;;5012852;28;20466;-49
2022/03/28 09:19:55;;;;;;;24.30;15.27;;;17.10;54.60;;;;;;5015500;28;20450;-49
2022/03/28 09:22:26;;;;;;;22.30;14.10;;;17.60;52.90;;;;;;5016718;28;20490;-49
2022/03/28 09:24:59;;;;;;;21.90;14.47;;;18.50;52.20;;;;;;5016577;28;20451;-49
2022/03/28 09:27:29;;;;;;;19.83;16.07;;;19.10;51.00;;;;;;5016126;28;21008;-50
2022/03/28 09:30:02;;;;;;;29.53;15.60;;;19.20;51.20;;;;;;5016636;28;20446;-50
2022/03/28 09:32:31;;;;;;;17.63;13.20;;;19.80;50.40;;;;;;5016835;28;20784;-50
2022/03/28 09:35:10;;;;;;;24.83;16.57;;;20.40;50.00;;;;;;5016606;28;20451;-50
2022/03/28 09:38:02;;;;;;;25.67;17.23;;;20.50;48.20;;;;;;5016503;28;20483;-50
2022/03/28 09:40:32;;;;;;;20.60;15.00;;;20.90;48.20;;;;;;5016621;28;20431;-50
2022/03/28 09:43:00;;;;;;;21.73;14.80;;;21.00;47.90;;;;;;5016091;28;21019;-50
2022/03/28 09:45:30;;;;;;;23.40;15.57;;;21.80;47.60;;;;;;5016244;28;20542;-50
2022/03/28 09:48:02;;;;;;;27.33;15.13;;;22.00;46.90;;;;;;5016476;28;20482;-49
2022/03/28 09:50:35;;;;;;;20.20;14.87;;;22.10;46.90;;;;;;5016368;28;20458;-50
2022/03/28 09:53:22;;;;;;;23.03;15.70;;;22.30;45.50;;;;;;5016076;28;20431;-50
2022/03/28 09:55:53;;;;;;;22.63;16.30;;;22.50;46.10;;;;;;5016197;28;20553;-52
2022/03/28 09:58:38;;;;;;;28.10;17.50;;;22.90;45.50;;;;;;5015537;28;20545;-50
2022/03/28 10:01:08;;;;;;;26.13;18.47;;;22.90;45.30;;;;;;5016456;28;20434;-50
2022/03/28 10:03:37;;;;;;;26.53;16.60;;;23.40;45.10;;;;;;5015982;28;20576;-50
2022/03/28 10:06:06;;;;;;;25.97;16.83;;;23.30;45.40;;;;;;5015797;28;20451;-50
2022/03/28 10:08:35;;;;;;;20.93;16.17;;;23.90;44.40;;;;;;5014651;28;20908;-50
2022/03/28 10:11:03;;;;;;;20.97;15.60;;;24.10;43.90;;;;;;5015679;28;20877;-50
2022/03/28 10:13:31;;;;;;;21.10;14.90;;;23.90;44.80;;;;;;5015590;28;20531;-50
2022/03/28 10:15:58;;;;;;;25.57;15.00;;;24.90;44.20;;;;;;5015792;28;20853;-50
2022/03/28 10:18:29;;;;;;;23.53;16.07;;;24.80;43.30;;;;;;5015497;28;20475;-50
2022/03/28 10:20:57;;;;;;;18.37;15.63;;;25.00;43.50;;;;;;5015573;28;20454;-50
2022/03/28 10:23:31;;;;;;;23.17;17.27;;;24.50;42.90;;;;;;5015517;28;20482;-49
2022/03/28 10:26:00;;;;;;;23.27;16.20;;;24.40;42.50;;;;;;5015683;28;20427;-50
2022/03/28 10:28:27;;;;;;;23.67;16.63;;;24.50;43.30;;;;;;5015460;28;20558;-51
2022/03/28 10:31:15;;;;;;;30.77;18.37;;;24.80;42.50;;;;;;5015198;28;20455;-50
2022/03/28 10:33:50;;;;;;;26.67;15.87;;;24.70;42.60;;;;;;5015339;28;20938;-50
2022/03/28 10:36:27;;;;;;;30.63;16.60;;;25.30;41.80;;;;;;5015225;28;20459;-50
2022/03/28 10:38:57;;;;;;;38.10;16.37;;;25.40;41.90;;;;;;5015446;28;20462;-50
2022/03/28 10:41:27;;;;;;;26.33;17.23;;;25.50;42.00;;;;;;5015469;28;20474;-50
2022/03/28 10:44:04;;;;;;;24.53;17.20;;;25.40;42.90;;;;;;5015327;28;20486;-50
2022/03/28 10:46:36;;;;;;;22.73;16.53;;;26.20;42.30;;;;;;5015187;28;20439;-50
2022/03/28 10:49:06;;;;;;;23.23;17.00;;;25.90;41.40;;;;;;5015288;28;20478;-50
2022/03/28 10:51:34;;;;;;;17.87;14.77;;;25.80;41.50;;;;;;5015101;28;20446;-50
2022/03/28 10:54:03;;;;;;;21.00;17.00;;;25.40;42.10;;;;;;5015060;28;20455;-50
2022/03/28 10:56:34;;;;;;;21.63;16.27;;;25.70;42.10;;;;;;5014812;28;20934;-50
2022/03/28 10:59:06;;;;;;;24.97;16.60;;;25.90;41.00;;;;;;5014639;28;20505;-50
2022/03/28 11:01:36;;;;;;;26.80;17.20;;;25.30;41.20;;;;;;5014908;28;20777;-50
2022/03/28 11:04:06;;;;;;;27.83;17.33;;;25.20;40.30;;;;;;5014899;28;20483;-50
2022/03/28 11:07:03;;;;;;;21.00;14.40;;;25.20;41.00;;;;;;5015079;28;20465;-50
2022/03/28 11:09:45;;;;;;;22.60;16.13;;;25.00;40.00;;;;;;5013822;28;20891;-51
2022/03/28 11:12:15;;;;;;;26.07;17.10;;;25.20;40.40;;;;;;5014604;28;20438;-51
2022/03/28 11:14:45;;;;;;;21.90;15.70;;;25.30;38.90;;;;;;5013674;28;20475;-53
2022/03/28 11:17:17;;;;;;;22.77;15.03;;;25.50;39.10;;;;;;5014619;28;20496;-53
2022/03/28 11:19:55;;;;;;;21.53;14.53;;;24.90;39.80;;;;;;5013607;28;20817;-52
2022/03/28 11:22:48;;;;;;;20.13;15.23;;;24.40;39.80;;;;;;5013865;28;20848;-50
2022/03/28 11:25:46;;;;;;;24.47;16.67;;;25.10;40.10;;;;;;5013874;28;20451;-49
2022/03/28 11:28:20;;;;;;;22.13;15.87;;;25.70;39.60;;;;;;5014107;28;20941;-53
2022/03/28 11:30:58;;;;;;;22.67;17.00;;;26.10;39.40;;;;;;5014263;28;20438;-53
2022/03/28 11:33:34;;;;;;;25.27;16.07;;;26.50;39.10;;;;;;5014229;28;20890;-53
2022/03/28 11:36:03;;;;;;;21.60;17.27;;;26.60;38.80;;;;;;5014313;28;20815;-52
2022/03/28 11:38:32;;;;;;;25.63;16.97;;;25.60;38.00;;;;;;5014187;28;20471;-50
2022/03/28 11:41:01;;;;;;;24.53;16.27;;;24.80;38.80;;;;;;5013669;28;20538;-52
2022/03/28 11:43:35;;;;;;;26.30;16.60;;;24.30;38.90;;;;;;5013545;28;20482;-53
2022/03/28 11:46:10;;;;;;;19.10;15.10;;;24.80;39.10;;;;;;5014189;28;20430;-51
2022/03/28 11:48:37;;;;;;;19.60;15.03;;;25.20;38.20;;;;;;5013722;28;20558;-50
2022/03/28 11:51:16;;;;;;;22.53;15.60;;;25.50;38.60;;;;;;5014042;28;20454;-50
2022/03/28 11:53:43;;;;;;;22.60;15.50;;;25.80;37.60;;;;;;5013642;28;20949;-49
2022/03/28 11:56:11;;;;;;;19.67;14.30;;;25.10;37.60;;;;;;5014094;28;20601;-50
2022/03/28 11:58:39;;;;;;;23.97;16.07;;;25.20;38.30;;;;;;5013917;28;20478;-50
2022/03/28 12:01:10;;;;;;;24.53;16.83;;;25.80;37.40;;;;;;5014050;28;20807;-50
2022/03/28 12:03:38;;;;;;;20.07;15.20;;;25.70;38.80;;;;;;5013765;28;20475;-51
2022/03/28 12:06:08;;;;;;;29.53;17.30;;;26.50;39.60;;;;;;5013657;28;20526;-51
2022/03/28 12:08:35;;;;;;;19.60;16.03;;;26.70;38.50;;;;;;5013544;28;20482;-51
2022/03/28 12:11:02;;;;;;;33.00;18.47;;;26.60;38.50;;;;;;5013155;28;20929;-51
2022/03/28 12:13:29;;;;;;;23.20;17.00;;;27.00;39.00;;;;;;5013149;28;20447;-53
2022/03/28 12:16:00;;;;;;;28.43;19.07;;;26.50;37.90;;;;;;5013122;28;20451;-51
2022/03/28 12:18:31;;;;;;;22.60;15.73;;;26.60;38.10;;;;;;5012717;28;20489;-51
2022/03/28 12:20:58;;;;;;;25.00;17.47;;;26.80;38.60;;;;;;5013101;28;20447;-49
2022/03/28 12:23:28;;;;;;;20.40;15.30;;;26.60;38.70;;;;;;5013037;28;20840;-50
2022/03/28 12:25:56;;;;;;;21.87;16.43;;;26.50;39.80;;;;;;5013280;28;20557;-52
2022/03/28 12:28:28;;;;;;;22.70;14.77;;;26.80;39.70;;;;;;5012601;28;20980;-51
2022/03/28 12:30:58;;;;;;;24.60;14.70;;;26.20;39.60;;;;;;5012784;28;20455;-50
2022/03/28 12:33:28;;;;;;;24.83;15.80;;;25.70;40.20;;;;;;5013364;28;20471;-53
2022/03/28 12:35:58;;;;;;;21.97;15.07;;;25.10;40.20;;;;;;5013601;28;20451;-53
2022/03/28 12:38:27;;;;;;;19.57;16.27;;;25.00;40.60;;;;;;5013300;28;20475;-52
2022/03/28 12:40:56;;;;;;;28.63;15.00;;;25.30;40.00;;;;;;5012901;28;20486;-51
2022/03/28 12:43:27;;;;;;;20.50;15.20;;;25.50;40.90;;;;;;5013231;28;20556;-52